Huvudsida
METAR-TAF:

METAR-TAF

Flygplatser :

Kuwaits internationella flygplats

Kuwait, Kuwait

latitud: 29-13N, longitud: 047-59E, höjd: 55 m

Aktuellt väderrapport

Denna rapport gjordes för 12 minuter sedan, klockan 08:00 UTC
Vind 10 kt från nord
Temperatur 41°C
Fuktighet 14%
Tryck 1008 hPa
Sikt 10 km eller mer
Inga moln under 1 500 m eller inga cumulonimbus

METAR: OKBK 270800Z 35010KT CAVOK 41/08 Q1008 NOSIG

Tid: 11:12 (08:12 UTC)

Väderprognos

Denna rapport gjordes för 5 timmar och 2 minuter sedan, klockan 03:10 UTC
Prognos gäller från 27 kl. 03 UTC till 28 kl. 06 UTC
Vind 12 kt från nord
Sikt: 7000 m
Temporärt
från 27 kl. 03 UTC till 27 kl. 09 UTC
Vind 3 kt varierande vindriktning
Sikt: 3500 m
torrdis

TAF: OKBK 270310Z 2703/2806 35012KT 7000 NSC TEMPO 2703/2709 VRB03KT 3500 HZ

Aktuella väderrapporter och prognoser från 4000 flygplatser (METAR- och TAF-rapporter).

De tillgängliga stationerna syns som gula och röda prickar på kartan.

För musen över prickarna för att se namnen på stationerna.

Klicka sedan för att få väderrapporter och prognoser.

För att ändra kartan: Klicka på de gröna knapparna med ett svart kors på för att zooma in; den gröna knappen med ett streck på för att zooma ut; eller på de gröna pilarna för angränsande kartor.


METAR-TAF: